createdAt,value
2023-02-27T00:00:15.017Z,0.93
2023-02-27T00:03:16.908Z,1.01
2023-02-27T00:06:18.613Z,0.92
2023-02-27T00:09:20.259Z,1.08
2023-02-27T00:12:21.876Z,0.96
2023-02-27T00:15:23.552Z,0.84
2023-02-27T00:18:25.252Z,1.08
2023-02-27T00:21:27.663Z,0.88
2023-02-27T00:24:29.473Z,1.00
2023-02-27T00:27:32.679Z,0.70
2023-02-27T00:30:34.375Z,0.95
2023-02-27T00:33:36.197Z,1.10
2023-02-27T00:36:37.877Z,0.97
2023-02-27T00:39:39.525Z,1.05
2023-02-27T00:42:41.300Z,0.95
2023-02-27T00:45:43.012Z,0.89
2023-02-27T00:48:44.720Z,0.84
2023-02-27T00:51:46.781Z,0.81
2023-02-27T00:54:48.419Z,0.88
2023-02-27T00:57:50.205Z,0.89
2023-02-27T01:00:51.927Z,0.53
2023-02-27T01:03:53.705Z,0.93
2023-02-27T01:06:55.388Z,0.84
2023-02-27T01:09:57.263Z,0.78
2023-02-27T01:12:58.975Z,0.79
2023-02-27T01:16:00.716Z,0.83
2023-02-27T01:19:02.727Z,0.49
2023-02-27T01:22:04.422Z,0.96
2023-02-27T01:25:06.677Z,0.84
2023-02-27T01:28:08.866Z,0.84
2023-02-27T01:31:10.535Z,0.72
2023-02-27T01:34:12.251Z,0.78
2023-02-27T01:37:14.066Z,0.60
2023-02-27T01:40:16.053Z,0.72
2023-02-27T01:43:20.493Z,0.50
2023-02-27T01:46:22.570Z,0.56
2023-02-27T01:49:27.414Z,0.74
2023-02-27T01:52:31.413Z,0.81
2023-02-27T01:55:37.992Z,0.68
2023-02-27T01:58:40.381Z,0.58
2023-02-27T02:01:42.738Z,0.80
2023-02-27T02:04:46.404Z,0.64
2023-02-27T02:07:49.070Z,0.58
2023-02-27T02:10:53.528Z,0.59
2023-02-27T02:14:02.866Z,0.60
2023-02-27T02:17:53.223Z,0.72
2023-02-27T02:21:48.861Z,0.58
2023-02-27T02:25:02.715Z,0.58
2023-02-27T02:28:35.182Z,0.25
2023-02-27T02:31:43.479Z,0.53
2023-02-27T02:35:06.526Z,0.14
2023-02-27T02:38:26.656Z,-0.25
2023-02-27T02:41:58.113Z,-0.37
2023-02-27T02:45:17.745Z,-0.55
2023-02-27T02:48:35.381Z,-0.65
2023-02-27T02:51:46.149Z,-0.81
2023-02-27T02:55:09.074Z,-0.88
2023-02-27T02:58:52.628Z,-0.98
2023-02-27T03:02:02.682Z,-1.08
2023-02-27T03:05:14.357Z,-1.19
2023-02-27T03:08:20.893Z,-1.27
2023-02-27T03:11:26.736Z,-1.27
2023-02-27T03:14:50.791Z,-1.32
2023-02-27T03:18:04.586Z,-1.37
2023-02-27T03:21:13.805Z,-1.32
2023-02-27T03:24:26.109Z,-1.20
2023-02-27T03:27:33.773Z,-1.30
2023-02-27T03:30:40.233Z,-1.39
2023-02-27T03:33:53.820Z,-1.35
2023-02-27T03:37:02.095Z,-1.37
2023-02-27T03:40:15.693Z,-1.32
2023-02-27T03:43:56.989Z,-1.31
2023-02-27T03:46:59.227Z,-1.25
2023-02-27T03:50:01.064Z,-1.26
2023-02-27T03:53:07.157Z,-1.26
2023-02-27T03:56:10.941Z,-1.22
2023-02-27T03:59:13.639Z,-1.27
2023-02-27T04:02:16.359Z,-1.25
2023-02-27T04:05:19.541Z,-0.91
2023-02-27T04:09:04.839Z,-1.06
2023-02-27T04:12:50.880Z,-1.38
2023-02-27T04:16:06.279Z,-1.42
2023-02-27T04:19:29.750Z,-1.37
2023-02-27T04:22:48.070Z,-1.54
2023-02-27T04:26:06.795Z,-1.53
2023-02-27T04:29:24.324Z,-1.52
2023-02-27T04:32:43.322Z,-1.69
2023-02-27T04:35:52.908Z,-1.71
2023-02-27T04:39:00.101Z,-1.64
2023-02-27T04:42:05.764Z,-1.58
2023-02-27T04:45:14.288Z,-1.37
2023-02-27T04:49:04.527Z,-1.47
2023-02-27T04:52:18.240Z,-1.59
2023-02-27T04:55:46.759Z,-1.63
2023-02-27T04:58:50.912Z,-1.61
2023-02-27T05:02:14.844Z,-1.63
2023-02-27T05:05:22.101Z,-1.69
2023-02-27T05:08:45.276Z,-1.69
2023-02-27T05:12:04.668Z,-1.47
2023-02-27T05:15:11.270Z,-1.54
2023-02-27T05:18:17.632Z,-1.51
2023-02-27T05:21:37.187Z,-1.41
2023-02-27T05:24:41.798Z,-1.26
2023-02-27T05:27:54.191Z,-1.41
2023-02-27T05:31:03.510Z,-1.50
2023-02-27T05:34:18.761Z,-1.23
2023-02-27T05:37:27.206Z,-1.19
2023-02-27T05:40:37.851Z,-1.27
2023-02-27T05:43:50.748Z,-0.92
2023-02-27T05:47:16.279Z,-0.90
2023-02-27T05:50:24.978Z,-0.60
2023-02-27T05:53:33.396Z,-0.36
2023-02-27T05:56:37.326Z,-0.23
2023-02-27T05:59:45.989Z,-0.36
2023-02-27T06:02:47.817Z,0.00
2023-02-27T06:05:53.119Z,0.25
2023-02-27T06:08:55.210Z,0.40
2023-02-27T06:11:58.375Z,0.38
2023-02-27T06:15:00.038Z,0.72
2023-02-27T06:18:01.988Z,0.76
2023-02-27T06:21:03.937Z,0.79
2023-02-27T06:24:05.881Z,0.88
2023-02-27T06:27:07.502Z,0.93
2023-02-27T06:30:09.970Z,1.01
2023-02-27T06:33:12.468Z,1.29
2023-02-27T06:36:14.197Z,1.14
2023-02-27T06:39:15.971Z,1.39
2023-02-27T06:42:18.422Z,1.25
2023-02-27T06:45:20.200Z,1.28
2023-02-27T06:48:22.228Z,1.32
2023-02-27T06:51:23.974Z,1.24
2023-02-27T06:54:25.751Z,1.65
2023-02-27T06:57:27.373Z,1.52
2023-02-27T07:00:29.485Z,1.85
2023-02-27T07:03:31.154Z,1.89
2023-02-27T07:07:34.631Z,1.91
2023-02-27T07:09:54.441Z,2.06
2023-02-27T07:12:56.460Z,2.39
2023-02-27T07:15:58.162Z,2.18
2023-02-27T07:18:59.882Z,2.21
2023-02-27T07:22:01.639Z,2.29
2023-02-27T07:25:04.266Z,2.67
2023-02-27T07:28:06.219Z,2.78
2023-02-27T07:31:07.893Z,2.34
2023-02-27T07:34:11.915Z,2.99
2023-02-27T07:37:13.868Z,3.17
2023-02-27T07:40:15.508Z,3.13
2023-02-27T07:43:17.121Z,3.24
2023-02-27T07:46:18.861Z,3.72
2023-02-27T07:49:20.556Z,3.69
2023-02-27T07:52:22.246Z,4.56
2023-02-27T07:55:23.888Z,4.73
2023-02-27T07:58:25.566Z,5.48
2023-02-27T08:01:27.306Z,5.95
2023-02-27T08:04:29.063Z,5.76
2023-02-27T08:07:30.946Z,5.70
2023-02-27T08:10:32.817Z,6.30
2023-02-27T08:16:56.158Z,6.46
2023-02-27T08:19:57.825Z,6.09
2023-02-27T08:22:59.482Z,5.29
2023-02-27T08:26:02.015Z,5.47
2023-02-27T08:29:03.914Z,6.95
2023-02-27T08:32:05.664Z,8.03
2023-02-27T08:35:07.699Z,7.02
2023-02-27T08:38:09.369Z,7.23
2023-02-27T08:41:11.035Z,6.93
2023-02-27T08:44:13.149Z,6.45
2023-02-27T08:47:14.797Z,7.07
2023-02-27T08:50:16.726Z,6.97
2023-02-27T08:53:18.556Z,6.16
2023-02-27T08:56:20.240Z,7.04
2023-02-27T08:59:22.007Z,8.89
2023-02-27T09:02:26.135Z,9.45
2023-02-27T09:05:28.866Z,10.36
2023-02-27T09:08:30.596Z,10.36
2023-02-27T09:11:32.896Z,9.65
2023-02-27T09:14:34.568Z,8.02
2023-02-27T09:17:36.198Z,7.87
2023-02-27T09:20:37.924Z,7.93
2023-02-27T09:23:40.174Z,8.63
2023-02-27T09:26:46.095Z,7.00
2023-02-27T09:29:48.980Z,7.88
2023-02-27T09:32:50.957Z,7.91
2023-02-27T09:35:52.730Z,8.02
2023-02-27T09:38:54.468Z,8.97
2023-02-27T09:42:11.730Z,9.52
2023-02-27T09:45:26.325Z,9.87
2023-02-27T09:48:55.365Z,11.41
2023-02-27T09:51:57.089Z,11.87
2023-02-27T09:54:59.184Z,10.49
2023-02-27T09:58:24.294Z,10.41
2023-02-27T10:01:49.861Z,9.83
2023-02-27T10:05:24.033Z,9.03
2023-02-27T10:08:34.883Z,8.01
2023-02-27T10:12:17.371Z,7.46
2023-02-27T10:15:40.492Z,7.66
2023-02-27T10:19:03.332Z,7.71
2023-02-27T10:22:12.313Z,7.97
2023-02-27T10:25:30.897Z,6.96
2023-02-27T10:28:33.885Z,6.74
2023-02-27T10:31:36.585Z,6.30
2023-02-27T10:34:41.260Z,6.98
2023-02-27T10:37:49.597Z,7.14
2023-02-27T10:40:51.525Z,6.93
2023-02-27T10:43:57.868Z,6.46
2023-02-27T10:46:59.489Z,6.39
2023-02-27T10:50:01.154Z,6.60
2023-02-27T10:53:07.045Z,6.28
2023-02-27T10:56:16.525Z,6.59
2023-02-27T10:59:25.641Z,6.80
2023-02-27T11:02:35.158Z,6.41
2023-02-27T11:05:37.322Z,6.61
2023-02-27T11:08:39.456Z,6.64
2023-02-27T11:11:41.121Z,6.26
2023-02-27T11:14:52.499Z,7.01
2023-02-27T11:17:55.136Z,7.01
2023-02-27T11:21:28.500Z,7.79
2023-02-27T11:24:30.993Z,7.87
2023-02-27T11:27:33.554Z,7.28
2023-02-27T11:30:35.669Z,7.28
2023-02-27T11:33:53.600Z,6.06
2023-02-27T11:37:02.179Z,5.38
2023-02-27T11:40:10.623Z,5.41
2023-02-27T11:43:21.493Z,5.70
2023-02-27T11:46:46.689Z,6.00
2023-02-27T11:50:09.921Z,5.86
2023-02-27T11:53:33.281Z,5.94
2023-02-27T11:57:16.382Z,5.64
2023-02-27T12:00:27.628Z,5.58
2023-02-27T12:03:46.589Z,5.68
2023-02-27T12:07:17.634Z,5.82
2023-02-27T12:10:32.266Z,5.71
2023-02-27T12:13:38.658Z,5.97
2023-02-27T12:16:42.470Z,5.99
2023-02-27T12:20:02.312Z,5.84
2023-02-27T12:23:17.065Z,5.74
2023-02-27T12:26:27.386Z,7.24
2023-02-27T12:29:39.109Z,7.49
2023-02-27T12:32:50.382Z,7.36
2023-02-27T12:36:00.034Z,6.37
2023-02-27T12:39:04.357Z,6.80
2023-02-27T12:42:30.889Z,6.60
2023-02-27T12:45:57.809Z,6.69
2023-02-27T12:49:18.465Z,6.77
2023-02-27T12:52:28.447Z,6.75
2023-02-27T12:55:34.138Z,6.81
2023-02-27T12:58:57.674Z,7.01
2023-02-27T13:02:18.320Z,6.47
2023-02-27T13:05:55.950Z,5.54
2023-02-27T13:09:15.943Z,5.44
2023-02-27T13:12:29.794Z,6.40
2023-02-27T13:15:38.140Z,6.10
2023-02-27T13:18:54.771Z,5.36
2023-02-27T13:22:16.851Z,6.72
2023-02-27T13:25:18.788Z,6.47
2023-02-27T13:28:25.493Z,6.57
2023-02-27T13:31:34.157Z,6.79
2023-02-27T13:34:50.151Z,6.07
2023-02-27T13:38:03.659Z,5.11
2023-02-27T13:41:20.327Z,4.87
2023-02-27T13:44:22.108Z,4.72
2023-02-27T13:47:29.885Z,5.08
2023-02-27T13:50:31.486Z,5.59
2023-02-27T13:53:33.175Z,7.49
2023-02-27T13:56:35.576Z,9.51
2023-02-27T13:59:40.593Z,8.01
2023-02-27T14:02:59.809Z,8.43
2023-02-27T14:06:06.267Z,8.60
2023-02-27T14:09:15.111Z,9.41
2023-02-27T14:12:45.375Z,10.89
2023-02-27T14:15:51.602Z,13.45
2023-02-27T14:19:01.224Z,13.95
2023-02-27T14:22:11.711Z,14.10
2023-02-27T14:25:22.125Z,13.34
2023-02-27T14:28:36.194Z,9.84
2023-02-27T14:31:40.828Z,9.22
2023-02-27T14:34:42.644Z,8.13
2023-02-27T14:37:44.490Z,8.58
2023-02-27T14:41:01.806Z,8.12
2023-02-27T14:44:04.449Z,7.35
2023-02-27T14:47:06.902Z,6.87
2023-02-27T14:50:37.495Z,5.65
2023-02-27T14:53:39.131Z,5.11
2023-02-27T14:56:42.044Z,4.53
2023-02-27T14:59:49.715Z,4.64
2023-02-27T15:02:51.305Z,4.42
2023-02-27T15:05:57.653Z,4.34
2023-02-27T15:08:59.859Z,4.32
2023-02-27T15:12:04.475Z,4.52
2023-02-27T15:15:09.099Z,4.51
2023-02-27T15:18:14.833Z,4.44
2023-02-27T15:21:19.207Z,4.09
2023-02-27T15:24:28.564Z,3.98
2023-02-27T15:27:33.480Z,4.07
2023-02-27T15:30:35.153Z,3.88
2023-02-27T15:33:36.948Z,3.61
2023-02-27T15:36:47.769Z,3.79
2023-02-27T15:39:51.477Z,3.14
2023-02-27T15:42:55.217Z,2.88
2023-02-27T15:45:58.441Z,2.74
2023-02-27T15:49:00.354Z,2.61
2023-02-27T15:52:11.994Z,2.53
2023-02-27T15:55:16.907Z,2.22
2023-02-27T15:58:25.580Z,2.17
2023-02-27T16:01:31.153Z,1.92
2023-02-27T16:04:34.780Z,1.91
2023-02-27T16:07:42.599Z,1.74
2023-02-27T16:10:46.641Z,1.65
2023-02-27T16:13:48.819Z,1.62
2023-02-27T16:16:55.848Z,1.35
2023-02-27T16:20:01.957Z,1.30
2023-02-27T16:23:07.256Z,1.17
2023-02-27T16:26:09.043Z,1.09
2023-02-27T16:29:20.550Z,0.87
2023-02-27T16:32:25.264Z,0.83
2023-02-27T16:35:28.014Z,0.56
2023-02-27T16:38:29.709Z,0.72
2023-02-27T16:41:31.509Z,0.49
2023-02-27T16:44:33.600Z,0.37
2023-02-27T16:47:36.699Z,0.27
2023-02-27T16:50:43.095Z,0.26
2023-02-27T16:53:48.126Z,0.42
2023-02-27T16:56:50.888Z,0.22
2023-02-27T16:59:52.531Z,0.08
2023-02-27T17:02:54.897Z,-0.21
2023-02-27T17:05:58.266Z,-0.17
2023-02-27T17:09:00.421Z,-0.15
2023-02-27T17:12:02.506Z,-0.34
2023-02-27T17:15:04.908Z,-0.24
2023-02-27T17:18:09.342Z,-0.55
2023-02-27T17:21:11.571Z,-0.20
2023-02-27T17:24:13.413Z,-0.28
2023-02-27T17:27:15.277Z,-0.78
2023-02-27T17:30:19.226Z,-0.53
2023-02-27T17:33:21.323Z,-0.74
2023-02-27T17:36:24.591Z,-0.81
2023-02-27T17:39:27.021Z,-0.62
2023-02-27T17:42:32.293Z,-0.44
2023-02-27T17:45:35.812Z,-0.26
2023-02-27T17:48:39.352Z,-0.16
2023-02-27T17:51:41.384Z,-0.20
2023-02-27T17:54:45.153Z,-0.17
2023-02-27T17:57:47.867Z,-0.56
2023-02-27T18:00:50.268Z,-0.52
2023-02-27T18:03:56.819Z,-0.41
2023-02-27T18:06:59.233Z,-0.39
2023-02-27T18:10:01.459Z,-0.63
2023-02-27T18:13:05.386Z,-0.88
2023-02-27T18:16:08.843Z,-0.59
2023-02-27T18:19:11.773Z,-0.67
2023-02-27T18:22:17.550Z,-0.48
2023-02-27T18:25:20.265Z,-0.53
2023-02-27T18:28:22.457Z,-0.60
2023-02-27T18:31:31.283Z,-0.60
2023-02-27T18:34:34.117Z,-0.91
2023-02-27T18:37:36.826Z,-1.14
2023-02-27T18:40:40.306Z,-1.31
2023-02-27T18:43:44.286Z,-1.30
2023-02-27T18:46:48.306Z,-1.22
2023-02-27T18:49:51.824Z,-1.34
2023-02-27T18:52:57.290Z,-1.31
2023-02-27T18:56:01.725Z,-1.54
2023-02-27T18:59:06.693Z,-1.53
2023-02-27T19:02:23.037Z,-1.56
2023-02-27T19:05:25.675Z,-1.66
2023-02-27T19:08:32.143Z,-1.77
2023-02-27T19:11:36.423Z,-1.48
2023-02-27T19:14:39.515Z,-1.42
2023-02-27T19:17:42.143Z,-1.42
2023-02-27T19:20:44.770Z,-1.26
2023-02-27T19:23:47.582Z,-1.23
2023-02-27T19:26:51.120Z,-1.56
2023-02-27T19:29:55.170Z,-1.42
2023-02-27T19:32:59.458Z,-1.38
2023-02-27T19:36:08.897Z,-1.53
2023-02-27T19:39:13.745Z,-1.74
2023-02-27T19:42:16.510Z,-1.59
2023-02-27T19:45:19.474Z,-1.50
2023-02-27T19:48:21.841Z,-1.72
2023-02-27T19:51:25.958Z,-1.42
2023-02-27T19:54:28.797Z,-1.49
2023-02-27T19:57:31.415Z,-1.44
2023-02-27T20:00:33.931Z,-1.47
2023-02-27T20:03:37.354Z,-1.62
2023-02-27T20:06:46.203Z,-1.79
2023-02-27T20:09:49.095Z,-1.90
2023-02-27T20:12:51.356Z,-2.44
2023-02-27T20:16:07.930Z,-2.09
2023-02-27T20:19:13.484Z,-2.36
2023-02-27T20:22:16.403Z,-2.35
2023-02-27T20:25:19.512Z,-2.17
2023-02-27T20:28:23.127Z,-2.61
2023-02-27T20:31:28.864Z,-2.31
2023-02-27T20:34:31.828Z,-2.34
2023-02-27T20:37:36.003Z,-2.32
2023-02-27T20:40:38.769Z,-2.27
2023-02-27T20:43:43.366Z,-2.48
2023-02-27T20:46:49.291Z,-2.35
2023-02-27T20:49:51.890Z,-2.53
2023-02-27T20:52:58.276Z,-2.60
2023-02-27T20:56:00.974Z,-2.41
2023-02-27T20:59:06.474Z,-2.54
2023-02-27T21:02:10.304Z,-2.62
2023-02-27T21:05:12.179Z,-2.18
2023-02-27T21:08:15.490Z,-2.53
2023-02-27T21:11:27.578Z,-2.49
2023-02-27T21:14:29.636Z,-2.58
2023-02-27T21:17:31.764Z,-2.10
2023-02-27T21:20:33.604Z,-2.12
2023-02-27T21:23:45.519Z,-2.21
2023-02-27T21:26:48.045Z,-2.07
2023-02-27T21:29:50.847Z,-1.94
2023-02-27T21:32:52.505Z,-1.89
2023-02-27T21:35:54.469Z,-1.96
2023-02-27T21:38:58.049Z,-1.91
2023-02-27T21:41:59.819Z,-1.62
2023-02-27T21:45:01.558Z,-1.75
2023-02-27T21:48:03.265Z,-1.69
2023-02-27T21:51:06.039Z,-1.73
2023-02-27T21:54:09.503Z,-1.63
2023-02-27T21:57:11.182Z,-1.65
2023-02-27T22:00:13.241Z,-1.49
2023-02-27T22:03:14.875Z,-1.43
2023-02-27T22:06:17.652Z,-1.58
2023-02-27T22:09:19.874Z,-1.69
2023-02-27T22:12:22.307Z,-1.44
2023-02-27T22:15:23.993Z,-1.35
2023-02-27T22:18:26.952Z,-1.36
2023-02-27T22:21:28.935Z,-1.48
2023-02-27T22:24:30.881Z,-1.66
2023-02-27T22:27:32.531Z,-1.47
2023-02-27T22:30:34.360Z,-1.44
2023-02-27T22:33:38.499Z,-1.48
2023-02-27T22:36:41.826Z,-1.54
2023-02-27T22:39:43.632Z,-1.38
2023-02-27T22:42:45.420Z,-1.38
2023-02-27T22:45:47.743Z,-1.47
2023-02-27T22:48:49.387Z,-1.31
2023-02-27T22:51:52.061Z,-1.30
2023-02-27T22:54:53.937Z,-1.12
2023-02-27T22:57:57.175Z,-1.17
2023-02-27T23:00:58.933Z,-1.34
2023-02-27T23:04:03.596Z,-1.28
2023-02-27T23:07:05.290Z,-0.79
2023-02-27T23:10:09.890Z,-1.02
2023-02-27T23:13:11.580Z,-1.04
2023-02-27T23:16:16.310Z,-1.08
2023-02-27T23:19:19.934Z,-1.08
2023-02-27T23:22:21.571Z,-1.24
2023-02-27T23:25:23.279Z,-1.22
2023-02-27T23:28:24.935Z,-1.20
2023-02-27T23:31:26.904Z,-1.02
2023-02-27T23:34:35.097Z,-0.87
2023-02-27T23:37:42.268Z,-0.87
2023-02-27T23:40:43.987Z,-0.71
2023-02-27T23:43:45.710Z,-0.80
2023-02-27T23:46:47.443Z,-1.15
2023-02-27T23:49:49.054Z,-1.30
2023-02-27T23:52:54.282Z,-1.05
2023-02-27T23:55:56.280Z,-0.92
2023-02-27T23:59:04.023Z,-0.77
